sensor_id;sensor_type;location;lat;lon;timestamp;pressure;altitude;pressure_sealevel;temperature
76394;BMP180;65216;51.090;-115.352;2023-07-09T00:02:22;86716.40;;;23.70
76394;BMP180;65216;51.090;-115.352;2023-07-09T00:04:50;86723.20;;;23.64
76394;BMP180;65216;51.090;-115.352;2023-07-09T00:07:32;86734.00;;;23.60
76394;BMP180;65216;51.090;-115.352;2023-07-09T00:10:00;86729.80;;;23.60
76394;BMP180;65216;51.090;-115.352;2023-07-09T00:12:27;86733.80;;;23.60
76394;BMP180;65216;51.090;-115.352;2023-07-09T00:14:54;86722.20;;;23.60
76394;BMP180;65216;51.090;-115.352;2023-07-09T00:17:33;86733.00;;;23.60
76394;BMP180;65216;51.090;-115.352;2023-07-09T00:20:01;86731.40;;;23.60
76394;BMP180;65216;51.090;-115.352;2023-07-09T00:22:31;86723.00;;;23.54
76394;BMP180;65216;51.090;-115.352;2023-07-09T00:24:58;86727.00;;;23.50
76394;BMP180;65216;51.090;-115.352;2023-07-09T00:27:29;86719.20;;;23.50
76394;BMP180;65216;51.090;-115.352;2023-07-09T00:29:59;86715.40;;;23.50
76394;BMP180;65216;51.090;-115.352;2023-07-09T00:32:29;86719.80;;;23.48
76394;BMP180;65216;51.090;-115.352;2023-07-09T00:35:01;86723.00;;;23.50
76394;BMP180;65216;51.090;-115.352;2023-07-09T00:37:31;86721.00;;;23.42
76394;BMP180;65216;51.090;-115.352;2023-07-09T00:39:58;86724.80;;;23.40
76394;BMP180;65216;51.090;-115.352;2023-07-09T00:42:27;86711.20;;;23.40
76394;BMP180;65216;51.090;-115.352;2023-07-09T00:44:55;86718.40;;;23.40
76394;BMP180;65216;51.090;-115.352;2023-07-09T00:47:48;86719.20;;;23.40
76394;BMP180;65216;51.090;-115.352;2023-07-09T00:50:41;86710.80;;;23.44
76394;BMP180;65216;51.090;-115.352;2023-07-09T00:53:32;86718.20;;;23.48
76394;BMP180;65216;51.090;-115.352;2023-07-09T00:56:06;86715.40;;;23.44
76394;BMP180;65216;51.090;-115.352;2023-07-09T00:58:37;86721.00;;;23.40
76394;BMP180;65216;51.090;-115.352;2023-07-09T01:01:14;86707.60;;;23.40
76394;BMP180;65216;51.090;-115.352;2023-07-09T01:03:53;86708.20;;;23.40
76394;BMP180;65216;51.090;-115.352;2023-07-09T01:06:47;86720.20;;;23.40
76394;BMP180;65216;51.090;-115.352;2023-07-09T01:09:17;86701.80;;;23.40
76394;BMP180;65216;51.090;-115.352;2023-07-09T01:11:44;86717.20;;;23.40
76394;BMP180;65216;51.090;-115.352;2023-07-09T01:14:22;86710.40;;;23.40
76394;BMP180;65216;51.090;-115.352;2023-07-09T01:16:57;86718.00;;;23.40
76394;BMP180;65216;51.090;-115.352;2023-07-09T01:19:36;86716.00;;;23.40
76394;BMP180;65216;51.090;-115.352;2023-07-09T01:22:18;86710.40;;;23.40
76394;BMP180;65216;51.090;-115.352;2023-07-09T01:25:05;86726.40;;;23.40
76394;BMP180;65216;51.090;-115.352;2023-07-09T01:27:43;86715.80;;;23.40
76394;BMP180;65216;51.090;-115.352;2023-07-09T01:30:35;86709.60;;;23.40
76394;BMP180;65216;51.090;-115.352;2023-07-09T01:33:04;86711.60;;;23.40
76394;BMP180;65216;51.090;-115.352;2023-07-09T01:35:37;86720.60;;;23.40
76394;BMP180;65216;51.090;-115.352;2023-07-09T01:38:24;86713.40;;;23.40
76394;BMP180;65216;51.090;-115.352;2023-07-09T01:40:51;86721.40;;;23.40
76394;BMP180;65216;51.090;-115.352;2023-07-09T01:43:21;86710.80;;;23.40
76394;BMP180;65216;51.090;-115.352;2023-07-09T01:45:48;86721.20;;;23.40
76394;BMP180;65216;51.090;-115.352;2023-07-09T01:48:20;86722.60;;;23.40
76394;BMP180;65216;51.090;-115.352;2023-07-09T01:50:47;86710.40;;;23.40
76394;BMP180;65216;51.090;-115.352;2023-07-09T01:53:20;86724.40;;;23.40
76394;BMP180;65216;51.090;-115.352;2023-07-09T01:55:55;86728.60;;;23.40
76394;BMP180;65216;51.090;-115.352;2023-07-09T01:58:22;86720.80;;;23.40
76394;BMP180;65216;51.090;-115.352;2023-07-09T02:00:54;86730.20;;;23.40
76394;BMP180;65216;51.090;-115.352;2023-07-09T02:03:21;86720.00;;;23.40
76394;BMP180;65216;51.090;-115.352;2023-07-09T02:05:52;86734.80;;;23.40
76394;BMP180;65216;51.090;-115.352;2023-07-09T02:08:19;86740.80;;;23.40
76394;BMP180;65216;51.090;-115.352;2023-07-09T02:10:49;86739.00;;;23.40
76394;BMP180;65216;51.090;-115.352;2023-07-09T02:13:17;86738.60;;;23.40
76394;BMP180;65216;51.090;-115.352;2023-07-09T02:15:44;86740.20;;;23.40
76394;BMP180;65216;51.090;-115.352;2023-07-09T02:18:13;86740.80;;;23.40
76394;BMP180;65216;51.090;-115.352;2023-07-09T02:20:40;86743.80;;;23.34
76394;BMP180;65216;51.090;-115.352;2023-07-09T02:23:08;86753.40;;;23.30
76394;BMP180;65216;51.090;-115.352;2023-07-09T02:25:35;86756.00;;;23.30
76394;BMP180;65216;51.090;-115.352;2023-07-09T02:28:02;86746.60;;;23.30
76394;BMP180;65216;51.090;-115.352;2023-07-09T02:30:29;86762.60;;;23.30
76394;BMP180;65216;51.090;-115.352;2023-07-09T02:32:56;86762.00;;;23.20
76394;BMP180;65216;51.090;-115.352;2023-07-09T02:35:24;86763.60;;;23.20
76394;BMP180;65216;51.090;-115.352;2023-07-09T02:37:50;86765.20;;;23.20
76394;BMP180;65216;51.090;-115.352;2023-07-09T02:40:20;86764.20;;;23.20
76394;BMP180;65216;51.090;-115.352;2023-07-09T02:42:50;86768.20;;;23.10
76394;BMP180;65216;51.090;-115.352;2023-07-09T02:45:17;86762.60;;;23.10
76394;BMP180;65216;51.090;-115.352;2023-07-09T02:47:45;86769.60;;;23.10
76394;BMP180;65216;51.090;-115.352;2023-07-09T02:50:12;86764.60;;;23.10
76394;BMP180;65216;51.090;-115.352;2023-07-09T02:52:40;86769.60;;;23.10
76394;BMP180;65216;51.090;-115.352;2023-07-09T02:55:11;86774.20;;;23.00
76394;BMP180;65216;51.090;-115.352;2023-07-09T02:57:38;86780.80;;;23.00
76394;BMP180;65216;51.090;-115.352;2023-07-09T03:00:05;86765.00;;;23.00
76394;BMP180;65216;51.090;-115.352;2023-07-09T03:02:34;86774.20;;;23.00
76394;BMP180;65216;51.090;-115.352;2023-07-09T03:05:01;86775.00;;;22.94
76394;BMP180;65216;51.090;-115.352;2023-07-09T03:07:31;86772.80;;;22.90
76394;BMP180;65216;51.090;-115.352;2023-07-09T03:09:58;86776.80;;;22.90
76394;BMP180;65216;51.090;-115.352;2023-07-09T03:12:25;86770.00;;;22.90
76394;BMP180;65216;51.090;-115.352;2023-07-09T03:14:55;86781.00;;;22.90
76394;BMP180;65216;51.090;-115.352;2023-07-09T03:17:22;86780.40;;;22.86
76394;BMP180;65216;51.090;-115.352;2023-07-09T03:19:49;86785.00;;;22.80
76394;BMP180;65216;51.090;-115.352;2023-07-09T03:22:16;86788.60;;;22.80
76394;BMP180;65216;51.090;-115.352;2023-07-09T03:24:43;86790.00;;;22.80
76394;BMP180;65216;51.090;-115.352;2023-07-09T03:27:10;86790.80;;;22.80
76394;BMP180;65216;51.090;-115.352;2023-07-09T03:29:37;86792.80;;;22.80
76394;BMP180;65216;51.090;-115.352;2023-07-09T03:32:05;86797.00;;;22.78
76394;BMP180;65216;51.090;-115.352;2023-07-09T03:34:32;86798.80;;;22.70
76394;BMP180;65216;51.090;-115.352;2023-07-09T03:36:59;86800.40;;;22.70
76394;BMP180;65216;51.090;-115.352;2023-07-09T03:39:26;86799.00;;;22.70
76394;BMP180;65216;51.090;-115.352;2023-07-09T03:41:56;86797.20;;;22.70
76394;BMP180;65216;51.090;-115.352;2023-07-09T03:44:23;86797.80;;;22.68
76394;BMP180;65216;51.090;-115.352;2023-07-09T03:46:50;86808.00;;;22.60
76394;BMP180;65216;51.090;-115.352;2023-07-09T03:49:17;86808.60;;;22.60
76394;BMP180;65216;51.090;-115.352;2023-07-09T03:51:44;86810.00;;;22.60
76394;BMP180;65216;51.090;-115.352;2023-07-09T03:54:11;86811.40;;;22.60
76394;BMP180;65216;51.090;-115.352;2023-07-09T03:56:38;86815.00;;;22.56
76394;BMP180;65216;51.090;-115.352;2023-07-09T03:59:05;86817.00;;;22.50
76394;BMP180;65216;51.090;-115.352;2023-07-09T04:01:32;86822.60;;;22.50
76394;BMP180;65216;51.090;-115.352;2023-07-09T04:04:02;86825.80;;;22.50
76394;BMP180;65216;51.090;-115.352;2023-07-09T04:06:29;86829.60;;;22.50
76394;BMP180;65216;51.090;-115.352;2023-07-09T04:08:59;86833.00;;;22.50
76394;BMP180;65216;51.090;-115.352;2023-07-09T04:11:26;86838.40;;;22.50
76394;BMP180;65216;51.090;-115.352;2023-07-09T04:13:53;86836.80;;;22.48
76394;BMP180;65216;51.090;-115.352;2023-07-09T04:16:20;86840.20;;;22.40
76394;BMP180;65216;51.090;-115.352;2023-07-09T04:18:49;86842.40;;;22.40
76394;BMP180;65216;51.090;-115.352;2023-07-09T04:21:16;86841.00;;;22.40
76394;BMP180;65216;51.090;-115.352;2023-07-09T04:23:43;86842.20;;;22.40
76394;BMP180;65216;51.090;-115.352;2023-07-09T04:26:14;86845.20;;;22.40
76394;BMP180;65216;51.090;-115.352;2023-07-09T04:28:41;86845.60;;;22.40
76394;BMP180;65216;51.090;-115.352;2023-07-09T04:31:08;86845.60;;;22.40
76394;BMP180;65216;51.090;-115.352;2023-07-09T04:33:38;86851.40;;;22.40
76394;BMP180;65216;51.090;-115.352;2023-07-09T04:36:05;86851.40;;;22.40
76394;BMP180;65216;51.090;-115.352;2023-07-09T04:38:32;86851.60;;;22.40
76394;BMP180;65216;51.090;-115.352;2023-07-09T04:40:59;86848.00;;;22.40
76394;BMP180;65216;51.090;-115.352;2023-07-09T04:43:26;86849.40;;;22.32
76394;BMP180;65216;51.090;-115.352;2023-07-09T04:45:53;86852.00;;;22.30
76394;BMP180;65216;51.090;-115.352;2023-07-09T04:48:20;86851.20;;;22.30
76394;BMP180;65216;51.090;-115.352;2023-07-09T04:50:47;86852.20;;;22.30
76394;BMP180;65216;51.090;-115.352;2023-07-09T04:53:16;86855.80;;;22.30
76394;BMP180;65216;51.090;-115.352;2023-07-09T04:55:45;86856.20;;;22.30
76394;BMP180;65216;51.090;-115.352;2023-07-09T04:58:12;86856.40;;;22.30
76394;BMP180;65216;51.090;-115.352;2023-07-09T05:00:39;86857.80;;;22.30
76394;BMP180;65216;51.090;-115.352;2023-07-09T05:03:06;86864.20;;;22.30
76394;BMP180;65216;51.090;-115.352;2023-07-09T05:05:35;86864.20;;;22.30
76394;BMP180;65216;51.090;-115.352;2023-07-09T05:08:08;86865.40;;;22.30
76394;BMP180;65216;51.090;-115.352;2023-07-09T05:10:57;86867.40;;;22.30
76394;BMP180;65216;51.090;-115.352;2023-07-09T05:13:25;86869.00;;;22.30
76394;BMP180;65216;51.090;-115.352;2023-07-09T05:15:53;86869.40;;;22.28
76394;BMP180;65216;51.090;-115.352;2023-07-09T05:18:23;86871.00;;;22.28
76394;BMP180;65216;51.090;-115.352;2023-07-09T05:20:53;86872.80;;;22.20
76394;BMP180;65216;51.090;-115.352;2023-07-09T05:23:19;86877.00;;;22.20
76394;BMP180;65216;51.090;-115.352;2023-07-09T05:25:46;86878.40;;;22.20
76394;BMP180;65216;51.090;-115.352;2023-07-09T05:28:16;86881.40;;;22.20
76394;BMP180;65216;51.090;-115.352;2023-07-09T05:30:43;86884.60;;;22.20
76394;BMP180;65216;51.090;-115.352;2023-07-09T05:33:10;86886.00;;;22.20
76394;BMP180;65216;51.090;-115.352;2023-07-09T05:35:37;86886.20;;;22.20
76394;BMP180;65216;51.090;-115.352;2023-07-09T05:38:04;86887.20;;;22.20
76394;BMP180;65216;51.090;-115.352;2023-07-09T05:40:31;86892.60;;;22.20
76394;BMP180;65216;51.090;-115.352;2023-07-09T05:42:58;86893.60;;;22.20
76394;BMP180;65216;51.090;-115.352;2023-07-09T05:45:24;86896.00;;;22.20
76394;BMP180;65216;51.090;-115.352;2023-07-09T05:47:51;86896.20;;;22.12
76394;BMP180;65216;51.090;-115.352;2023-07-09T05:50:18;86897.60;;;22.16
76394;BMP180;65216;51.090;-115.352;2023-07-09T05:52:45;86898.40;;;22.12
76394;BMP180;65216;51.090;-115.352;2023-07-09T05:55:12;86901.00;;;22.10
76394;BMP180;65216;51.090;-115.352;2023-07-09T05:57:39;86901.20;;;22.10
76394;BMP180;65216;51.090;-115.352;2023-07-09T06:00:07;86902.60;;;22.10
76394;BMP180;65216;51.090;-115.352;2023-07-09T06:02:35;86901.60;;;22.10
76394;BMP180;65216;51.090;-115.352;2023-07-09T06:05:02;86909.20;;;22.10
76394;BMP180;65216;51.090;-115.352;2023-07-09T06:07:29;86909.00;;;22.10
76394;BMP180;65216;51.090;-115.352;2023-07-09T06:09:56;86907.80;;;22.10
76394;BMP180;65216;51.090;-115.352;2023-07-09T06:12:24;86910.00;;;22.10
76394;BMP180;65216;51.090;-115.352;2023-07-09T06:14:51;86910.60;;;22.08
76394;BMP180;65216;51.090;-115.352;2023-07-09T06:17:18;86913.40;;;22.08
76394;BMP180;65216;51.090;-115.352;2023-07-09T06:19:46;86912.80;;;22.04
76394;BMP180;65216;51.090;-115.352;2023-07-09T06:22:15;86910.40;;;22.00
76394;BMP180;65216;51.090;-115.352;2023-07-09T06:24:42;86907.80;;;22.00
76394;BMP180;65216;51.090;-115.352;2023-07-09T06:27:10;86911.00;;;22.00
76394;BMP180;65216;51.090;-115.352;2023-07-09T06:29:41;86907.20;;;22.00
76394;BMP180;65216;51.090;-115.352;2023-07-09T06:32:08;86909.20;;;22.00
76394;BMP180;65216;51.090;-115.352;2023-07-09T06:34:35;86910.60;;;22.00
76394;BMP180;65216;51.090;-115.352;2023-07-09T06:37:02;86915.20;;;22.00
76394;BMP180;65216;51.090;-115.352;2023-07-09T06:39:32;86916.80;;;22.00
76394;BMP180;65216;51.090;-115.352;2023-07-09T06:41:59;86910.20;;;22.00
76394;BMP180;65216;51.090;-115.352;2023-07-09T06:44:28;86914.80;;;22.00
76394;BMP180;65216;51.090;-115.352;2023-07-09T06:46:55;86919.80;;;22.00
76394;BMP180;65216;51.090;-115.352;2023-07-09T06:49:25;86918.60;;;21.98
76394;BMP180;65216;51.090;-115.352;2023-07-09T06:51:51;86922.00;;;21.94
76394;BMP180;65216;51.090;-115.352;2023-07-09T06:54:18;86924.00;;;21.94
76394;BMP180;65216;51.090;-115.352;2023-07-09T06:56:45;86919.80;;;21.90
76394;BMP180;65216;51.090;-115.352;2023-07-09T06:59:15;86920.00;;;21.90
76394;BMP180;65216;51.090;-115.352;2023-07-09T07:01:42;86919.80;;;21.90
76394;BMP180;65216;51.090;-115.352;2023-07-09T07:04:10;86918.00;;;21.90
76394;BMP180;65216;51.090;-115.352;2023-07-09T07:06:36;86919.20;;;21.90
76394;BMP180;65216;51.090;-115.352;2023-07-09T07:09:04;86919.20;;;21.90
76394;BMP180;65216;51.090;-115.352;2023-07-09T07:11:33;86919.40;;;21.90
76394;BMP180;65216;51.090;-115.352;2023-07-09T07:14:00;86924.00;;;21.90
76394;BMP180;65216;51.090;-115.352;2023-07-09T07:16:27;86924.40;;;21.90
76394;BMP180;65216;51.090;-115.352;2023-07-09T07:18:54;86924.00;;;21.90
76394;BMP180;65216;51.090;-115.352;2023-07-09T07:21:21;86927.20;;;21.90
76394;BMP180;65216;51.090;-115.352;2023-07-09T07:23:48;86927.80;;;21.90
76394;BMP180;65216;51.090;-115.352;2023-07-09T07:26:15;86927.40;;;21.88
76394;BMP180;65216;51.090;-115.352;2023-07-09T07:28:42;86930.20;;;21.80
76394;BMP180;65216;51.090;-115.352;2023-07-09T07:31:09;86931.60;;;21.80
76394;BMP180;65216;51.090;-115.352;2023-07-09T07:33:40;86931.80;;;21.80
76394;BMP180;65216;51.090;-115.352;2023-07-09T07:36:10;86933.60;;;21.80
76394;BMP180;65216;51.090;-115.352;2023-07-09T07:38:42;86937.20;;;21.80
76394;BMP180;65216;51.090;-115.352;2023-07-09T07:41:09;86941.00;;;21.80
76394;BMP180;65216;51.090;-115.352;2023-07-09T07:43:37;86937.20;;;21.80
76394;BMP180;65216;51.090;-115.352;2023-07-09T07:46:07;86938.20;;;21.80
76394;BMP180;65216;51.090;-115.352;2023-07-09T07:48:34;86939.20;;;21.80
76394;BMP180;65216;51.090;-115.352;2023-07-09T07:51:03;86943.60;;;21.80
76394;BMP180;65216;51.090;-115.352;2023-07-09T07:53:31;86939.60;;;21.80
76394;BMP180;65216;51.090;-115.352;2023-07-09T07:56:00;86944.60;;;21.80
76394;BMP180;65216;51.090;-115.352;2023-07-09T07:58:29;86944.00;;;21.80
76394;BMP180;65216;51.090;-115.352;2023-07-09T08:00:57;86945.80;;;21.80
76394;BMP180;65216;51.090;-115.352;2023-07-09T08:03:25;86951.40;;;21.80
76394;BMP180;65216;51.090;-115.352;2023-07-09T08:05:53;86947.40;;;21.80
76394;BMP180;65216;51.090;-115.352;2023-07-09T08:08:20;86955.60;;;21.80
76394;BMP180;65216;51.090;-115.352;2023-07-09T08:10:49;86955.20;;;21.80
76394;BMP180;65216;51.090;-115.352;2023-07-09T08:13:16;86959.20;;;21.80
76394;BMP180;65216;51.090;-115.352;2023-07-09T08:15:46;86959.80;;;21.80
76394;BMP180;65216;51.090;-115.352;2023-07-09T08:18:13;86962.40;;;21.80
76394;BMP180;65216;51.090;-115.352;2023-07-09T08:20:44;86963.20;;;21.80
76394;BMP180;65216;51.090;-115.352;2023-07-09T08:23:11;86965.60;;;21.80
76394;BMP180;65216;51.090;-115.352;2023-07-09T08:25:41;86967.60;;;21.80
76394;BMP180;65216;51.090;-115.352;2023-07-09T08:28:08;86973.40;;;21.80
76394;BMP180;65216;51.090;-115.352;2023-07-09T08:30:36;86969.00;;;21.80
76394;BMP180;65216;51.090;-115.352;2023-07-09T08:33:03;86969.80;;;21.80
76394;BMP180;65216;51.090;-115.352;2023-07-09T08:35:30;86969.00;;;21.78
76394;BMP180;65216;51.090;-115.352;2023-07-09T08:37:58;86970.40;;;21.80
76394;BMP180;65216;51.090;-115.352;2023-07-09T08:40:25;86972.20;;;21.78
76394;BMP180;65216;51.090;-115.352;2023-07-09T08:43:02;86973.80;;;21.78
76394;BMP180;65216;51.090;-115.352;2023-07-09T08:45:57;86976.20;;;21.78
76394;BMP180;65216;51.090;-115.352;2023-07-09T08:48:34;86981.20;;;21.78
76394;BMP180;65216;51.090;-115.352;2023-07-09T08:51:29;86982.00;;;21.78
76394;BMP180;65216;51.090;-115.352;2023-07-09T08:54:01;86986.60;;;21.80
76394;BMP180;65216;51.090;-115.352;2023-07-09T08:56:32;86985.40;;;21.78
76394;BMP180;65216;51.090;-115.352;2023-07-09T08:59:02;86989.80;;;21.78
76394;BMP180;65216;51.090;-115.352;2023-07-09T09:01:57;86994.60;;;21.72
76394;BMP180;65216;51.090;-115.352;2023-07-09T09:04:31;86993.80;;;21.74
76394;BMP180;65216;51.090;-115.352;2023-07-09T09:07:19;86996.00;;;21.70
76394;BMP180;65216;51.090;-115.352;2023-07-09T09:10:01;86995.60;;;21.72
76394;BMP180;65216;51.090;-115.352;2023-07-09T09:12:56;86994.60;;;21.70
76394;BMP180;65216;51.090;-115.352;2023-07-09T09:15:27;86995.60;;;21.70
76394;BMP180;65216;51.090;-115.352;2023-07-09T09:18:01;86998.60;;;21.70
76394;BMP180;65216;51.090;-115.352;2023-07-09T09:20:36;87000.60;;;21.70
76394;BMP180;65216;51.090;-115.352;2023-07-09T09:23:16;86997.00;;;21.70
76394;BMP180;65216;51.090;-115.352;2023-07-09T09:25:52;86999.20;;;21.70
76394;BMP180;65216;51.090;-115.352;2023-07-09T09:28:21;87001.60;;;21.70
76394;BMP180;65216;51.090;-115.352;2023-07-09T09:30:51;86998.20;;;21.70
76394;BMP180;65216;51.090;-115.352;2023-07-09T09:33:18;87001.80;;;21.70
76394;BMP180;65216;51.090;-115.352;2023-07-09T09:35:46;87001.60;;;21.70
76394;BMP180;65216;51.090;-115.352;2023-07-09T09:38:22;87004.60;;;21.70
76394;BMP180;65216;51.090;-115.352;2023-07-09T09:40:49;87002.40;;;21.70
76394;BMP180;65216;51.090;-115.352;2023-07-09T09:43:19;86997.80;;;21.70
76394;BMP180;65216;51.090;-115.352;2023-07-09T09:45:50;87004.20;;;21.70
76394;BMP180;65216;51.090;-115.352;2023-07-09T09:48:29;87002.00;;;21.70
76394;BMP180;65216;51.090;-115.352;2023-07-09T09:50:57;87006.80;;;21.70
76394;BMP180;65216;51.090;-115.352;2023-07-09T09:53:34;87002.60;;;21.70
76394;BMP180;65216;51.090;-115.352;2023-07-09T09:56:06;87002.00;;;21.66
76394;BMP180;65216;51.090;-115.352;2023-07-09T09:58:41;87004.20;;;21.66
76394;BMP180;65216;51.090;-115.352;2023-07-09T10:01:18;87004.00;;;21.60
76394;BMP180;65216;51.090;-115.352;2023-07-09T10:03:55;87003.20;;;21.66
76394;BMP180;65216;51.090;-115.352;2023-07-09T10:06:41;87004.20;;;21.60
76394;BMP180;65216;51.090;-115.352;2023-07-09T10:09:59;87004.60;;;21.60
76394;BMP180;65216;51.090;-115.352;2023-07-09T10:12:52;87002.40;;;21.60
76394;BMP180;65216;51.090;-115.352;2023-07-09T10:15:48;86996.80;;;21.60
76394;BMP180;65216;51.090;-115.352;2023-07-09T10:21:37;86999.20;;;21.60
76394;BMP180;65216;51.090;-115.352;2023-07-09T10:30:41;87002.20;;;21.58
76394;BMP180;65216;51.090;-115.352;2023-07-09T10:33:30;87002.60;;;21.50
76394;BMP180;65216;51.090;-115.352;2023-07-09T10:36:33;87007.60;;;21.50
76394;BMP180;65216;51.090;-115.352;2023-07-09T10:39:23;87010.00;;;21.50
76394;BMP180;65216;51.090;-115.352;2023-07-09T10:41:57;87008.40;;;21.50
76394;BMP180;65216;51.090;-115.352;2023-07-09T10:44:34;87006.80;;;21.50
76394;BMP180;65216;51.090;-115.352;2023-07-09T10:47:11;87006.40;;;21.48
76394;BMP180;65216;51.090;-115.352;2023-07-09T10:49:42;87001.00;;;21.40
76394;BMP180;65216;51.090;-115.352;2023-07-09T10:52:29;87006.60;;;21.40
76394;BMP180;65216;51.090;-115.352;2023-07-09T10:55:17;87007.40;;;21.40
76394;BMP180;65216;51.090;-115.352;2023-07-09T11:00:35;87006.40;;;21.40
76394;BMP180;65216;51.090;-115.352;2023-07-09T11:03:36;87012.80;;;21.40
76394;BMP180;65216;51.090;-115.352;2023-07-09T11:06:18;87013.40;;;21.40
76394;BMP180;65216;51.090;-115.352;2023-07-09T11:08:52;87011.80;;;21.40
76394;BMP180;65216;51.090;-115.352;2023-07-09T11:11:33;87015.00;;;21.30
76394;BMP180;65216;51.090;-115.352;2023-07-09T11:14:09;87013.00;;;21.30
76394;BMP180;65216;51.090;-115.352;2023-07-09T11:16:41;87016.00;;;21.30
76394;BMP180;65216;51.090;-115.352;2023-07-09T11:19:18;87014.80;;;21.30
76394;BMP180;65216;51.090;-115.352;2023-07-09T11:22:21;87017.40;;;21.30
76394;BMP180;65216;51.090;-115.352;2023-07-09T11:27:52;87026.60;;;21.30
76394;BMP180;65216;51.090;-115.352;2023-07-09T11:30:28;87026.00;;;21.30
76394;BMP180;65216;51.090;-115.352;2023-07-09T11:33:04;87027.00;;;21.30
76394;BMP180;65216;51.090;-115.352;2023-07-09T11:35:51;87027.20;;;21.30
76394;BMP180;65216;51.090;-115.352;2023-07-09T11:38:24;87030.80;;;21.30
76394;BMP180;65216;51.090;-115.352;2023-07-09T11:40:56;87030.00;;;21.30
76394;BMP180;65216;51.090;-115.352;2023-07-09T11:43:33;87028.20;;;21.24
76394;BMP180;65216;51.090;-115.352;2023-07-09T11:46:25;87032.80;;;21.20
76394;BMP180;65216;51.090;-115.352;2023-07-09T11:48:58;87033.00;;;21.20
76394;BMP180;65216;51.090;-115.352;2023-07-09T11:51:52;87032.00;;;21.20
76394;BMP180;65216;51.090;-115.352;2023-07-09T11:54:21;87036.20;;;21.20
76394;BMP180;65216;51.090;-115.352;2023-07-09T11:56:59;87037.00;;;21.20
76394;BMP180;65216;51.090;-115.352;2023-07-09T11:59:29;87041.00;;;21.20
76394;BMP180;65216;51.090;-115.352;2023-07-09T12:01:57;87042.00;;;21.20
76394;BMP180;65216;51.090;-115.352;2023-07-09T12:04:35;87041.00;;;21.20
76394;BMP180;65216;51.090;-115.352;2023-07-09T12:07:03;87040.00;;;21.20
76394;BMP180;65216;51.090;-115.352;2023-07-09T12:09:39;87037.20;;;21.20
76394;BMP180;65216;51.090;-115.352;2023-07-09T12:12:24;87038.80;;;21.20
76394;BMP180;65216;51.090;-115.352;2023-07-09T12:14:52;87038.00;;;21.20
76394;BMP180;65216;51.090;-115.352;2023-07-09T12:17:23;87036.40;;;21.20
76394;BMP180;65216;51.090;-115.352;2023-07-09T12:19:53;87037.40;;;21.20
76394;BMP180;65216;51.090;-115.352;2023-07-09T12:22:21;87040.80;;;21.18
76394;BMP180;65216;51.090;-115.352;2023-07-09T12:24:50;87041.20;;;21.16
76394;BMP180;65216;51.090;-115.352;2023-07-09T12:27:25;87041.20;;;21.12
76394;BMP180;65216;51.090;-115.352;2023-07-09T12:29:57;87043.80;;;21.10
76394;BMP180;65216;51.090;-115.352;2023-07-09T12:32:24;87041.20;;;21.10
76394;BMP180;65216;51.090;-115.352;2023-07-09T12:34:55;87042.80;;;21.10
76394;BMP180;65216;51.090;-115.352;2023-07-09T12:37:24;87040.00;;;21.10
76394;BMP180;65216;51.090;-115.352;2023-07-09T12:39:53;87044.00;;;21.10
76394;BMP180;65216;51.090;-115.352;2023-07-09T12:42:30;87044.40;;;21.10
76394;BMP180;65216;51.090;-115.352;2023-07-09T12:44:58;87041.80;;;21.10
76394;BMP180;65216;51.090;-115.352;2023-07-09T12:47:25;87041.20;;;21.10
76394;BMP180;65216;51.090;-115.352;2023-07-09T12:50:18;87039.00;;;21.10
76394;BMP180;65216;51.090;-115.352;2023-07-09T12:52:48;87045.60;;;21.10
76394;BMP180;65216;51.090;-115.352;2023-07-09T12:55:25;87042.00;;;21.10
76394;BMP180;65216;51.090;-115.352;2023-07-09T12:57:56;87048.00;;;21.10
76394;BMP180;65216;51.090;-115.352;2023-07-09T13:00:30;87049.80;;;21.10
76394;BMP180;65216;51.090;-115.352;2023-07-09T13:03:02;87050.80;;;21.10
76394;BMP180;65216;51.090;-115.352;2023-07-09T13:05:29;87049.80;;;21.10
76394;BMP180;65216;51.090;-115.352;2023-07-09T13:08:01;87051.00;;;21.10
76394;BMP180;65216;51.090;-115.352;2023-07-09T13:10:32;87049.60;;;21.10
76394;BMP180;65216;51.090;-115.352;2023-07-09T13:13:05;87054.20;;;21.10
76394;BMP180;65216;51.090;-115.352;2023-07-09T13:15:39;87052.00;;;21.10
76394;BMP180;65216;51.090;-115.352;2023-07-09T13:18:11;87053.40;;;21.10
76394;BMP180;65216;51.090;-115.352;2023-07-09T13:20:43;87053.40;;;21.10
76394;BMP180;65216;51.090;-115.352;2023-07-09T13:23:15;87053.80;;;21.10
76394;BMP180;65216;51.090;-115.352;2023-07-09T13:25:43;87056.60;;;21.10
76394;BMP180;65216;51.090;-115.352;2023-07-09T13:28:28;87051.60;;;21.10
76394;BMP180;65216;51.090;-115.352;2023-07-09T13:31:12;87051.40;;;21.10
76394;BMP180;65216;51.090;-115.352;2023-07-09T13:33:53;87052.60;;;21.10
76394;BMP180;65216;51.090;-115.352;2023-07-09T13:36:21;87054.80;;;21.16
76394;BMP180;65216;51.090;-115.352;2023-07-09T13:38:51;87052.80;;;21.20
76394;BMP180;65216;51.090;-115.352;2023-07-09T13:41:20;87052.80;;;21.20
76394;BMP180;65216;51.090;-115.352;2023-07-09T13:43:49;87055.20;;;21.20
76394;BMP180;65216;51.090;-115.352;2023-07-09T13:46:16;87050.60;;;21.20
76394;BMP180;65216;51.090;-115.352;2023-07-09T13:48:45;87046.20;;;21.20
76394;BMP180;65216;51.090;-115.352;2023-07-09T13:51:21;87047.20;;;21.20
76394;BMP180;65216;51.090;-115.352;2023-07-09T13:53:54;87045.60;;;21.20
76394;BMP180;65216;51.090;-115.352;2023-07-09T13:56:23;87047.00;;;21.20
76394;BMP180;65216;51.090;-115.352;2023-07-09T13:58:49;87034.80;;;21.20
76394;BMP180;65216;51.090;-115.352;2023-07-09T14:01:23;87043.40;;;21.20
76394;BMP180;65216;51.090;-115.352;2023-07-09T14:03:52;87041.80;;;21.20
76394;BMP180;65216;51.090;-115.352;2023-07-09T14:06:20;87046.00;;;21.20
76394;BMP180;65216;51.090;-115.352;2023-07-09T14:08:47;87046.40;;;21.20
76394;BMP180;65216;51.090;-115.352;2023-07-09T14:11:17;87047.60;;;21.20
76394;BMP180;65216;51.090;-115.352;2023-07-09T14:13:46;87044.00;;;21.20